Time;durP1;ratioP1;P1;durP2;ratioP2;P2;SDS_P1;SDS_P2;PMS_P1;PMS_P2;Temp;Humidity;BMP_temperature;BMP_pressure;BME280_temperature;BME280_humidity;BME280_pressure;Samples;Min_cycle;Max_cycle;Signal;HPM_P1;HPM_P2
2023/04/18 00:00:09;;;;;;;17.73;13.07;;;;;;;8.79;86.49;102765.41;4994721;28;20117;-77
2023/04/18 00:02:37;;;;;;;17.80;13.15;;;;;;;8.76;86.90;102769.78;4996283;28;20038;-77
2023/04/18 00:05:04;;;;;;;20.33;13.65;;;;;;;8.74;86.99;102767.16;4995892;28;20045;-77
2023/04/18 00:07:29;;;;;;;22.58;15.07;;;;;;;8.69;87.42;102768.03;4996565;28;20045;-77
2023/04/18 00:09:55;;;;;;;20.27;14.25;;;;;;;8.67;87.73;102775.88;4995503;28;20222;-77
2023/04/18 00:12:20;;;;;;;19.10;13.85;;;;;;;8.64;87.45;102771.53;4995880;28;20044;-77
2023/04/18 00:14:46;;;;;;;20.23;13.30;;;;;;;8.63;87.91;102768.94;4980131;28;20064;-77
2023/04/18 00:17:12;;;;;;;22.00;13.75;;;;;;;8.61;88.08;102773.28;4995285;28;20121;-77
2023/04/18 00:19:42;;;;;;;18.95;14.02;;;;;;;8.60;88.25;102771.53;4992036;28;20050;-77
2023/04/18 00:22:07;;;;;;;21.83;14.35;;;;;;;8.57;88.51;102775.03;4997329;28;20109;-77
2023/04/18 00:24:33;;;;;;;18.70;13.60;;;;;;;8.56;88.29;102772.41;4996364;28;20073;-77
2023/04/18 00:26:58;;;;;;;24.98;15.05;;;;;;;8.53;88.67;102767.19;4994877;28;20361;-77
2023/04/18 00:29:24;;;;;;;26.00;15.10;;;;;;;8.51;88.45;102768.94;4995165;28;20117;-77
2023/04/18 00:31:49;;;;;;;23.63;14.73;;;;;;;8.49;88.74;102765.47;4997061;28;20041;-77
2023/04/18 00:34:14;;;;;;;17.40;13.80;;;;;;;8.45;89.15;102767.22;4996674;28;20100;-77
2023/04/18 00:36:40;;;;;;;25.55;15.68;;;;;;;8.39;88.89;102762.81;4995564;28;20069;-77
2023/04/18 00:39:05;;;;;;;26.50;16.05;;;;;;;8.33;89.74;102762.84;4996611;28;20118;-77
2023/04/18 00:41:31;;;;;;;22.02;14.98;;;;;;;8.27;89.77;102763.69;4993966;28;20089;-77
2023/04/18 00:43:56;;;;;;;20.92;14.82;;;;;;;8.25;89.82;102761.97;4993608;28;20341;-77
2023/04/18 00:46:21;;;;;;;23.58;15.98;;;;;;;8.18;90.25;102758.47;4995526;28;20080;-77
2023/04/18 00:48:47;;;;;;;28.05;15.35;;;;;;;8.13;90.61;102760.25;4993188;28;20034;-77
2023/04/18 00:51:14;;;;;;;22.92;14.50;;;;;;;8.13;90.56;102757.63;4996025;28;20030;-77
2023/04/18 00:53:41;;;;;;;20.90;14.45;;;;;;;8.10;90.66;102757.63;4993019;28;20045;-77
2023/04/18 00:56:06;;;;;;;23.15;14.65;;;;;;;8.08;90.62;102747.19;4994716;28;20044;-77
2023/04/18 00:58:32;;;;;;;21.20;14.90;;;;;;;8.04;90.39;102747.16;4995089;28;20234;-77
2023/04/18 01:04:19;;;;;;;20.05;13.90;;;;;;;7.99;90.79;102756.75;4991532;28;20093;-77
2023/04/18 01:06:44;;;;;;;21.35;14.07;;;;;;;8.00;90.57;102755.88;4999035;28;20245;-77
2023/04/18 01:09:12;;;;;;;20.35;13.70;;;;;;;7.98;90.39;102757.59;4996430;28;20090;-77
2023/04/18 01:11:38;;;;;;;19.50;13.93;;;;;;;7.97;90.08;102756.75;4997490;28;20101;-77
2023/04/18 01:14:05;;;;;;;19.67;12.98;;;;;;;7.96;90.13;102748.91;4996817;28;20031;-77
2023/04/18 01:16:32;;;;;;;27.33;14.52;;;;;;;7.92;89.77;102753.25;4997833;28;20084;-77
2023/04/18 01:19:01;;;;;;;19.17;13.02;;;;;;;7.87;89.58;102745.41;4997966;28;20041;-77
2023/04/18 01:21:30;;;;;;;18.08;13.35;;;;;;;7.85;89.56;102749.75;4996537;28;20121;-77
2023/04/18 01:24:01;;;;;;;21.08;13.35;;;;;;;7.85;89.29;102752.38;4990885;28;20102;-77
2023/04/18 01:26:27;;;;;;;21.13;13.68;;;;;;;7.84;89.20;102750.66;4997792;28;20349;-77
2023/04/18 01:28:53;;;;;;;17.35;13.63;;;;;;;7.82;88.63;102746.28;4997079;28;20046;-77
2023/04/18 01:31:18;;;;;;;21.27;13.77;;;;;;;7.77;88.35;102748.03;4996669;28;20037;-77
2023/04/18 01:33:44;;;;;;;20.30;13.13;;;;;;;7.71;88.03;102748.88;4997276;28;20085;-77
2023/04/18 01:36:09;;;;;;;18.80;13.48;;;;;;;7.68;87.78;102743.66;4996469;28;20045;-77
2023/04/18 01:38:34;;;;;;;18.23;11.95;;;;;;;7.65;87.75;102746.25;4979675;28;20037;-77
2023/04/18 01:41:01;;;;;;;16.15;12.10;;;;;;;7.62;87.49;102747.13;4997919;28;20048;-77
2023/04/18 01:43:26;;;;;;;20.08;12.15;;;;;;;7.63;87.55;102742.78;4997631;28;20054;-77
2023/04/18 01:45:51;;;;;;;15.55;12.43;;;;;;;7.60;86.93;102743.63;4997263;28;20117;-77
2023/04/18 01:48:17;;;;;;;16.20;12.32;;;;;;;7.57;86.95;102742.78;4997767;28;20038;-77
2023/04/18 01:50:42;;;;;;;13.63;11.20;;;;;;;7.52;86.45;102741.88;4996025;28;20042;-77
2023/04/18 01:53:07;;;;;;;15.30;11.63;;;;;;;7.46;86.15;102738.41;4997659;28;20038;-77
2023/04/18 01:55:33;;;;;;;17.65;12.00;;;;;;;7.46;86.29;102743.59;5000056;28;20042;-77
2023/04/18 01:57:58;;;;;;;16.88;10.20;;;;;;;7.44;85.68;102736.63;5000657;28;20333;-77
2023/04/18 02:00:23;;;;;;;13.90;10.20;;;;;;;7.37;84.27;102745.28;4999812;28;20385;-77
2023/04/18 02:02:49;;;;;;;12.95;10.45;;;;;;;7.25;83.66;102739.19;5000047;28;20269;-77
2023/04/18 02:05:14;;;;;;;14.23;10.45;;;;;;;7.21;83.48;102737.44;4968345;28;20027;-76
2023/04/18 02:07:41;;;;;;;14.40;9.35;;;;;;;7.19;82.95;102733.09;5000727;28;20042;-76
2023/04/18 02:10:09;;;;;;;13.85;9.55;;;;;;;7.17;83.04;102740.00;5000475;28;20381;-76
2023/04/18 02:12:34;;;;;;;12.98;9.65;;;;;;;7.14;82.86;102735.69;5001041;28;20038;-76
2023/04/18 02:15:00;;;;;;;10.85;8.93;;;;;;;7.10;82.74;102733.94;5001328;28;20129;-76
2023/04/18 02:17:25;;;;;;;13.40;9.70;;;;;;;7.05;82.15;102728.69;5001410;28;20033;-76
2023/04/18 02:19:50;;;;;;;12.10;9.65;;;;;;;7.00;81.82;102726.94;4999147;28;20065;-76
2023/04/18 02:22:16;;;;;;;9.68;8.70;;;;;;;6.97;81.92;102727.81;5001274;28;20042;-76
2023/04/18 02:24:42;;;;;;;12.45;9.52;;;;;;;6.95;81.54;102723.44;4999362;28;20054;-76
2023/04/18 02:27:08;;;;;;;11.80;9.13;;;;;;;6.89;81.06;102722.56;5001508;28;20157;-76
2023/04/18 02:29:33;;;;;;;11.82;9.15;;;;;;;6.87;81.00;102723.41;5000735;28;20042;-76
2023/04/18 02:31:59;;;;;;;14.52;9.60;;;;;;;6.87;81.85;102720.78;5001034;28;20383;-76
2023/04/18 02:34:24;;;;;;;13.45;9.13;;;;;;;6.84;80.67;102720.75;4999526;28;20050;-76
2023/04/18 02:36:50;;;;;;;10.07;8.93;;;;;;;6.80;80.53;102717.28;5000865;28;20053;-76
2023/04/18 02:39:15;;;;;;;11.68;8.93;;;;;;;6.79;80.73;102722.50;4999571;28;20073;-76
2023/04/18 02:41:40;;;;;;;12.88;9.10;;;;;;;6.74;80.71;102725.06;4999165;28;20048;-76
2023/04/18 02:44:07;;;;;;;10.95;8.70;;;;;;;6.69;80.16;102726.78;5001109;28;20069;-76
2023/04/18 02:46:32;;;;;;;9.88;7.97;;;;;;;6.72;81.33;102725.06;5000335;28;20112;-76
2023/04/18 02:48:58;;;;;;;11.23;9.02;;;;;;;6.71;80.86;102725.94;4999699;28;20105;-76
2023/04/18 02:51:23;;;;;;;10.80;8.50;;;;;;;6.72;81.01;102727.66;4999521;28;20038;-76
2023/04/18 02:53:53;;;;;;;9.15;8.20;;;;;;;6.72;81.22;102729.41;4977249;28;20393;-78
2023/04/18 02:56:20;;;;;;;9.05;8.15;;;;;;;6.77;82.08;102729.41;5000570;28;20042;-78
2023/04/18 02:58:45;;;;;;;9.13;8.07;;;;;;;6.75;81.26;102726.81;5001204;28;20097;-78
2023/04/18 03:01:10;;;;;;;12.00;8.30;;;;;;;6.75;81.45;102729.44;4979678;28;20361;-78
2023/04/18 03:03:36;;;;;;;12.10;8.65;;;;;;;6.75;81.07;102724.22;5000686;28;20388;-77
2023/04/18 03:06:01;;;;;;;9.23;7.82;;;;;;;6.72;81.08;102726.78;4999844;28;20303;-77
2023/04/18 03:08:26;;;;;;;8.07;7.25;;;;;;;6.68;80.17;102725.91;4969470;28;20221;-78
2023/04/18 03:10:52;;;;;;;10.18;7.55;;;;;;;6.66;79.87;102726.78;4999423;28;20045;-78
2023/04/18 03:13:17;;;;;;;9.88;8.13;;;;;;;6.66;79.90;102726.78;4970152;28;20039;-78
2023/04/18 03:15:43;;;;;;;10.00;7.65;;;;;;;6.63;80.14;102726.75;4998924;28;20565;-78
2023/04/18 03:18:08;;;;;;;9.93;8.15;;;;;;;6.59;79.84;102733.66;4999481;28;20066;-77
2023/04/18 03:20:33;;;;;;;9.93;8.05;;;;;;;6.57;79.79;102730.19;5000050;28;20062;-78
2023/04/18 03:22:59;;;;;;;12.15;7.93;;;;;;;6.53;79.62;102733.59;5000847;28;20038;-78
2023/04/18 03:25:24;;;;;;;11.18;7.80;;;;;;;6.52;79.92;102737.94;5000265;28;20260;-77
2023/04/18 03:27:50;;;;;;;10.85;8.35;;;;;;;6.52;79.39;102735.34;4991628;28;20046;-77
2023/04/18 03:30:16;;;;;;;9.65;7.10;;;;;;;6.52;79.79;102734.50;4983030;28;20128;-77
2023/04/18 03:32:42;;;;;;;12.77;7.35;;;;;;;6.47;78.61;102737.03;4999318;28;20066;-78
2023/04/18 03:35:08;;;;;;;8.38;7.50;;;;;;;6.46;78.50;102737.06;5000321;28;20038;-78
2023/04/18 03:37:33;;;;;;;13.02;7.47;;;;;;;6.43;78.90;102735.28;4999986;28;20069;-77
2023/04/18 03:39:58;;;;;;;13.48;8.10;;;;;;;6.40;78.12;102743.06;4998893;28;20101;-77
2023/04/18 03:42:24;;;;;;;8.30;7.35;;;;;;;6.38;78.05;102743.94;4999182;28;20049;-78
2023/04/18 03:44:49;;;;;;;11.30;7.82;;;;;;;6.36;78.16;102743.91;4997816;28;20045;-77
2023/04/18 03:47:15;;;;;;;11.32;8.40;;;;;;;6.32;77.33;102734.34;5000601;28;20080;-77
2023/04/18 03:49:41;;;;;;;9.05;8.15;;;;;;;6.31;77.58;102743.91;4998719;28;20180;-77
2023/04/18 03:52:06;;;;;;;10.32;8.55;;;;;;;6.32;77.68;102743.03;5000852;28;20366;-77
2023/04/18 03:54:32;;;;;;;9.68;7.68;;;;;;;6.30;77.12;102736.94;4999822;28;20053;-77
2023/04/18 03:56:58;;;;;;;11.80;8.27;;;;;;;6.26;76.67;102732.56;5000872;28;20320;-78
2023/04/18 03:59:24;;;;;;;11.93;8.63;;;;;;;6.25;76.68;102737.75;4998925;28;20314;-78
2023/04/18 04:01:49;;;;;;;10.88;8.30;;;;;;;6.23;76.45;102736.88;4998859;28;20058;-78
2023/04/18 04:04:15;;;;;;;12.02;8.45;;;;;;;6.19;76.14;102741.19;4998454;28;20042;-78
2023/04/18 04:06:40;;;;;;;8.90;8.05;;;;;;;6.18;75.77;102736.84;4980493;28;20042;-77
2023/04/18 04:09:06;;;;;;;9.18;7.97;;;;;;;6.14;75.41;102740.28;4995055;28;20376;-77
2023/04/18 04:11:31;;;;;;;9.05;7.95;;;;;;;6.12;75.37;102745.47;4998621;28;20042;-77
2023/04/18 04:13:57;;;;;;;13.52;8.93;;;;;;;6.10;75.25;102748.94;5001165;28;20069;-78
2023/04/18 04:16:22;;;;;;;13.13;7.95;;;;;;;6.08;75.45;102746.31;4960953;28;20373;-77
2023/04/18 04:18:48;;;;;;;14.20;8.55;;;;;;;6.06;75.25;102739.34;4998462;28;20041;-77
2023/04/18 04:21:13;;;;;;;12.20;9.07;;;;;;;6.03;75.56;102745.38;5000423;28;20069;-78
2023/04/18 04:23:41;;;;;;;10.00;8.63;;;;;;;6.03;75.99;102741.91;4999358;28;20049;-77
2023/04/18 04:26:07;;;;;;;15.45;9.43;;;;;;;6.03;75.91;102740.19;4999236;28;20369;-78
2023/04/18 04:28:32;;;;;;;9.45;8.40;;;;;;;6.00;75.85;102741.88;4995732;28;20041;-77
2023/04/18 04:30:58;;;;;;;13.50;9.13;;;;;;;5.99;75.95;102741.03;4999484;28;20050;-78
2023/04/18 04:33:32;;;;;;;10.48;8.27;;;;;;;5.96;76.15;102752.25;4999143;28;20128;-78
2023/04/18 04:36:00;;;;;;;10.40;9.10;;;;;;;5.99;76.99;102751.44;4998163;28;20058;-77
2023/04/18 04:38:26;;;;;;;13.77;8.68;;;;;;;5.96;76.55;102751.38;4998180;28;20058;-77
2023/04/18 04:40:51;;;;;;;13.93;8.88;;;;;;;5.97;76.92;102745.34;4999419;28;20046;-77
2023/04/18 04:43:19;;;;;;;13.27;8.93;;;;;;;5.96;76.84;102748.78;4999999;28;20038;-78
2023/04/18 04:45:48;;;;;;;13.85;9.50;;;;;;;5.95;77.21;102749.63;4998849;28;20050;-77
2023/04/18 04:48:14;;;;;;;11.65;8.48;;;;;;;5.95;77.14;102752.22;4999156;28;20245;-77
2023/04/18 04:50:40;;;;;;;15.35;9.18;;;;;;;5.97;77.08;102755.75;4998208;28;20045;-77
2023/04/18 04:53:10;;;;;;;13.02;9.15;;;;;;;5.99;77.97;102755.75;4999941;28;20137;-77
2023/04/18 04:55:37;;;;;;;17.40;9.90;;;;;;;6.01;77.94;102754.91;4998848;28;20046;-78
2023/04/18 04:58:02;;;;;;;15.13;9.93;;;;;;;6.00;77.32;102755.75;4999385;28;20064;-78
2023/04/18 05:00:28;;;;;;;11.93;9.55;;;;;;;6.03;78.24;102757.53;4999455;28;20061;-77
2023/04/18 05:02:55;;;;;;;10.98;8.88;;;;;;;6.04;77.81;102761.84;4999372;28;20049;-78
2023/04/18 05:05:21;;;;;;;11.52;8.77;;;;;;;6.01;77.24;102760.13;4999279;28;20042;-78
2023/04/18 05:07:46;;;;;;;11.98;9.00;;;;;;;6.00;77.53;102766.16;4999217;28;20084;-78
2023/04/18 05:10:12;;;;;;;11.30;9.15;;;;;;;5.98;77.65;102754.88;4999624;28;20049;-77
2023/04/18 05:12:37;;;;;;;10.52;9.13;;;;;;;6.00;77.83;102763.56;4998451;28;20133;-77
2023/04/18 05:15:04;;;;;;;13.43;9.00;;;;;;;6.00;77.78;102767.91;4996186;28;20038;-77
2023/04/18 05:17:30;;;;;;;11.25;9.77;;;;;;;6.00;77.82;102760.09;4997019;28;20069;-77
2023/04/18 05:19:55;;;;;;;13.73;9.20;;;;;;;5.95;77.23;102762.63;4999425;28;20092;-77
2023/04/18 05:22:21;;;;;;;17.35;8.82;;;;;;;5.95;78.00;102766.13;4994996;28;20050;-78
2023/04/18 05:24:46;;;;;;;13.82;8.77;;;;;;;5.98;78.12;102769.63;4999198;28;20117;-77
2023/04/18 05:27:13;;;;;;;11.50;8.70;;;;;;;5.98;78.09;102769.63;4999328;28;20042;-78
2023/04/18 05:29:38;;;;;;;13.25;9.38;;;;;;;5.98;78.33;102767.00;4998162;28;20105;-77
2023/04/18 05:32:05;;;;;;;13.10;9.70;;;;;;;5.99;78.77;102766.16;4997677;28;20042;-77
2023/04/18 05:34:31;;;;;;;14.05;9.50;;;;;;;6.00;78.99;102767.91;4992079;28;20041;-78
2023/04/18 05:36:56;;;;;;;14.32;9.70;;;;;;;6.00;78.71;102778.31;4996706;28;20078;-77
2023/04/18 05:39:21;;;;;;;16.08;9.82;;;;;;;5.98;78.35;102767.00;4997586;28;20042;-78
2023/04/18 05:41:47;;;;;;;14.25;10.32;;;;;;;5.97;78.74;102771.34;4998779;28;20046;-77
2023/04/18 05:44:12;;;;;;;15.07;10.57;;;;;;;5.98;79.23;102767.88;4996921;28;20234;-78
2023/04/18 05:46:38;;;;;;;12.90;9.55;;;;;;;5.95;79.39;102784.34;4998006;28;20096;-77
2023/04/18 05:49:03;;;;;;;13.57;9.30;;;;;;;5.99;79.92;102779.19;4997415;28;20222;-77
2023/04/18 05:51:30;;;;;;;16.98;10.75;;;;;;;5.99;80.08;102784.38;4993373;28;20130;-77
2023/04/18 05:53:55;;;;;;;13.65;9.57;;;;;;;5.95;80.22;102778.25;4997881;28;20072;-78
2023/04/18 05:56:20;;;;;;;14.95;9.95;;;;;;;5.96;80.54;102787.81;4999501;28;20113;-77
2023/04/18 05:58:46;;;;;;;14.38;10.05;;;;;;;5.98;80.82;102785.22;4995373;28;20035;-77
2023/04/18 06:01:17;;;;;;;16.75;10.02;;;;;;;6.03;80.85;102793.94;4999258;28;20076;-77
2023/04/18 06:03:42;;;;;;;12.77;10.25;;;;;;;6.05;81.00;102784.41;4998657;28;20493;-77
2023/04/18 06:06:08;;;;;;;13.82;9.93;;;;;;;6.03;80.83;102787.00;4991291;28;20203;-77
2023/04/18 06:08:33;;;;;;;15.55;10.18;;;;;;;6.07;81.19;102795.72;4989749;28;20420;-77
2023/04/18 06:10:59;;;;;;;17.02;9.90;;;;;;;6.07;81.27;102787.91;4992720;28;20050;-77
2023/04/18 06:13:24;;;;;;;12.23;9.73;;;;;;;6.10;81.31;102794.00;4989906;28;20062;-77
2023/04/18 06:15:49;;;;;;;13.00;9.55;;;;;;;6.12;81.30;102796.63;4985778;28;20042;-77
2023/04/18 06:18:15;;;;;;;11.55;9.65;;;;;;;6.11;81.43;102795.75;4997291;28;20030;-77
2023/04/18 06:20:42;;;;;;;13.52;9.98;;;;;;;6.12;81.41;102781.88;4985030;28;20058;-77
2023/04/18 06:23:08;;;;;;;13.65;10.32;;;;;;;6.15;81.35;102794.94;4986293;28;20042;-78
2023/04/18 06:25:33;;;;;;;17.00;9.85;;;;;;;6.14;81.60;102789.72;4996182;28;20058;-78
2023/04/18 06:27:59;;;;;;;19.58;9.73;;;;;;;6.15;81.45;102796.66;4994810;28;20269;-77
2023/04/18 06:30:24;;;;;;;15.13;10.43;;;;;;;6.15;81.93;102799.28;4992866;28;20046;-77
2023/04/18 06:32:50;;;;;;;12.75;9.90;;;;;;;6.16;82.06;102803.59;4996035;28;20092;-76
2023/04/18 06:35:15;;;;;;;15.52;10.80;;;;;;;6.15;82.09;102797.53;4984457;28;20041;-77
2023/04/18 06:37:43;;;;;;;13.43;9.93;;;;;;;6.14;82.12;102800.97;4994499;28;20355;-76
2023/04/18 06:40:10;;;;;;;15.18;10.10;;;;;;;6.16;82.47;102803.59;4993725;28;20284;-77
2023/04/18 06:42:36;;;;;;;14.20;9.93;;;;;;;6.16;82.31;102798.41;4994372;28;20101;-77
2023/04/18 06:45:02;;;;;;;13.40;9.73;;;;;;;6.18;82.34;102803.63;4991282;28;20041;-77
2023/04/18 06:47:28;;;;;;;18.08;9.63;;;;;;;6.20;82.74;102804.50;4992628;28;20230;-77
2023/04/18 06:49:53;;;;;;;13.85;10.23;;;;;;;6.22;82.77;102801.06;4990276;28;20037;-77
2023/04/18 06:52:19;;;;;;;17.95;10.73;;;;;;;6.24;82.99;102803.66;4994810;28;20096;-77
2023/04/18 06:54:44;;;;;;;12.93;9.70;;;;;;;6.25;83.14;102798.47;4999032;28;20042;-77
2023/04/18 06:57:10;;;;;;;14.88;10.35;;;;;;;6.26;83.11;102789.81;4993272;28;20208;-77
2023/04/18 06:59:36;;;;;;;12.95;9.85;;;;;;;6.30;83.24;102802.00;4991225;28;20049;-77
2023/04/18 07:02:01;;;;;;;12.02;10.30;;;;;;;6.31;83.02;102784.63;4993086;28;20117;-77
2023/04/18 07:04:27;;;;;;;15.90;9.13;;;;;;;6.36;82.72;102795.09;4988401;28;20045;-77
2023/04/18 07:06:52;;;;;;;12.65;9.60;;;;;;;6.39;82.89;102789.94;4991629;28;20210;-77
2023/04/18 07:09:18;;;;;;;14.77;9.77;;;;;;;6.43;83.17;102794.28;4972566;28;20026;-77
2023/04/18 07:11:43;;;;;;;12.23;9.60;;;;;;;6.45;82.82;102798.63;4990770;28;20367;-77
2023/04/18 07:14:10;;;;;;;15.50;9.73;;;;;;;6.50;82.95;102798.69;4992510;28;20039;-76
2023/04/18 07:16:36;;;;;;;15.07;10.63;;;;;;;6.54;82.67;102795.25;4994817;28;20117;-77
2023/04/18 07:19:01;;;;;;;12.18;9.18;;;;;;;6.55;82.73;102797.00;4999719;28;20261;-76
2023/04/18 07:21:27;;;;;;;19.15;9.82;;;;;;;6.58;82.77;102797.00;4991437;28;20137;-77
2023/04/18 07:23:52;;;;;;;16.05;10.25;;;;;;;6.61;83.40;102806.56;4999231;28;20044;-76
2023/04/18 07:26:18;;;;;;;12.93;9.63;;;;;;;6.63;83.54;102799.66;4996220;28;20341;-77
2023/04/18 07:28:43;;;;;;;13.57;8.90;;;;;;;6.66;83.30;102803.16;4993462;28;20046;-76
2023/04/18 07:31:10;;;;;;;11.50;9.85;;;;;;;6.69;83.45;102808.38;4992615;28;20125;-76
2023/04/18 07:33:36;;;;;;;16.17;8.77;;;;;;;6.70;82.99;102806.66;4994220;28;20038;-77
2023/04/18 07:36:02;;;;;;;10.95;9.20;;;;;;;6.72;82.94;102805.78;4988704;28;20041;-77
2023/04/18 07:38:27;;;;;;;17.35;9.60;;;;;;;6.73;82.78;102804.03;4998839;28;20359;-77
2023/04/18 07:40:57;;;;;;;12.63;9.63;;;;;;;6.77;83.08;102808.44;4996783;28;20049;-77
2023/04/18 07:43:23;;;;;;;11.45;9.23;;;;;;;6.81;83.42;102799.75;4989460;28;20042;-77
2023/04/18 07:45:48;;;;;;;10.45;9.27;;;;;;;6.87;83.40;102805.00;4994746;28;20038;-77
2023/04/18 07:48:14;;;;;;;11.15;9.48;;;;;;;6.91;82.76;102801.56;4987314;28;20049;-77
2023/04/18 07:50:39;;;;;;;10.60;9.07;;;;;;;6.96;82.79;102803.31;4987772;28;20117;-77
2023/04/18 07:53:05;;;;;;;11.48;8.95;;;;;;;7.01;82.75;102804.22;4989021;28;20105;-77
2023/04/18 07:55:30;;;;;;;15.65;9.10;;;;;;;7.05;82.62;102805.97;4993804;28;20030;-76
2023/04/18 07:57:56;;;;;;;12.90;9.35;;;;;;;7.07;82.25;102802.50;4989441;28;20041;-77
2023/04/18 08:00:21;;;;;;;17.15;8.75;;;;;;;7.10;82.93;102802.53;4989853;28;20061;-77
2023/04/18 08:02:46;;;;;;;12.60;9.48;;;;;;;7.16;82.74;102806.91;4991460;28;20261;-77
2023/04/18 08:05:12;;;;;;;12.88;9.05;;;;;;;7.19;82.57;102800.84;4991726;28;20100;-77
2023/04/18 08:07:37;;;;;;;11.52;8.65;;;;;;;7.20;82.53;102807.78;4994909;28;20499;-77
2023/04/18 08:10:03;;;;;;;13.30;9.07;;;;;;;7.22;82.15;102806.06;4987510;28;20050;-77
2023/04/18 08:12:28;;;;;;;12.25;8.93;;;;;;;7.23;82.72;102805.22;4990507;28;20038;-77
2023/04/18 08:14:54;;;;;;;12.02;8.52;;;;;;;7.24;82.26;102805.22;4993284;28;20273;-77
2023/04/18 08:17:19;;;;;;;11.23;8.63;;;;;;;7.24;82.17;102814.75;4991959;28;20066;-77
2023/04/18 08:19:45;;;;;;;13.32;8.63;;;;;;;7.25;82.60;102804.34;4993302;28;20062;-77
2023/04/18 08:22:10;;;;;;;13.18;8.48;;;;;;;7.29;82.84;102808.72;4993033;28;20046;-77
2023/04/18 08:24:39;;;;;;;9.05;8.10;;;;;;;7.33;81.88;102809.63;4987575;28;20042;-77
2023/04/18 08:27:05;;;;;;;;;;;;;;;7.33;81.28;102809.63;4993432;28;20045;-77
2023/04/18 08:29:30;;;;;;;9.90;8.65;;;;;;;7.35;81.21;102810.47;4992205;28;19940;-77
2023/04/18 08:31:56;;;;;;;11.90;7.68;;;;;;;7.36;81.06;102804.38;4992047;28;20066;-77
2023/04/18 08:34:22;;;;;;;10.75;8.48;;;;;;;7.38;81.21;102810.47;4990069;28;20042;-77
2023/04/18 08:36:49;;;;;;;8.93;7.90;;;;;;;7.43;81.33;102813.97;4991152;28;20031;-77
2023/04/18 08:39:14;;;;;;;10.40;8.57;;;;;;;7.46;81.50;102806.19;4990665;28;20089;-77
2023/04/18 08:41:42;;;;;;;10.20;8.07;;;;;;;7.54;81.24;102807.94;4988081;28;20073;-77
2023/04/18 08:44:07;;;;;;;12.48;8.07;;;;;;;7.60;81.10;102808.81;4988342;28;20046;-77
2023/04/18 08:46:34;;;;;;;11.65;8.45;;;;;;;7.65;81.41;102804.50;4988394;28;20208;-77
2023/04/18 08:49:02;;;;;;;9.38;8.43;;;;;;;7.71;81.28;102802.78;4989963;28;20045;-77
2023/04/18 08:51:38;;;;;;;9.85;8.45;;;;;;;7.78;81.17;102807.13;4989664;28;20357;-77
2023/04/18 08:54:08;;;;;;;9.38;7.95;;;;;;;7.80;80.17;102810.63;4974465;28;20041;-77
2023/04/18 08:56:36;;;;;;;8.95;7.80;;;;;;;7.84;80.32;102807.13;4987543;28;20046;-77
2023/04/18 08:59:01;;;;;;;9.30;8.13;;;;;;;7.86;80.27;102801.06;4990914;28;20133;-77
2023/04/18 09:01:49;;;;;;;10.50;7.15;;;;;;;7.93;80.41;102803.69;4984961;28;20051;-77
2023/04/18 09:04:38;;;;;;;12.30;8.13;;;;;;;7.98;80.61;102804.56;4984767;28;20285;-77
2023/04/18 09:07:09;;;;;;;12.50;7.75;;;;;;;8.02;79.99;102801.97;4990990;28;20073;-77
2023/04/18 09:09:40;;;;;;;10.88;7.45;;;;;;;8.06;80.05;102795.03;4990169;28;20066;-77
2023/04/18 09:12:07;;;;;;;10.85;7.38;;;;;;;8.13;79.69;102798.50;4995479;28;20105;-77
2023/04/18 09:14:35;;;;;;;11.20;7.35;;;;;;;8.15;79.01;102792.44;4991415;28;20043;-77
2023/04/18 09:17:00;;;;;;;10.32;7.35;;;;;;;8.17;78.96;102789.81;4990368;28;20069;-77
2023/04/18 09:19:27;;;;;;;8.68;7.75;;;;;;;8.21;79.10;102802.84;4991606;28;20042;-77
2023/04/18 09:22:03;;;;;;;14.05;7.30;;;;;;;8.28;79.22;102795.91;4988232;28;20113;-77
2023/04/18 09:24:30;;;;;;;12.07;7.97;;;;;;;8.32;79.25;102797.63;4991455;28;20359;-77
2023/04/18 09:26:57;;;;;;;11.95;7.93;;;;;;;8.39;79.62;102793.28;4985759;28;20038;-77
2023/04/18 09:29:42;;;;;;;9.82;7.53;;;;;;;8.48;79.57;102800.25;4992604;28;20125;-77
2023/04/18 09:32:07;;;;;;;9.75;7.15;;;;;;;8.52;78.58;102787.22;4991723;28;20023;-77
2023/04/18 09:34:33;;;;;;;9.43;7.10;;;;;;;8.58;78.08;102789.81;4989872;28;20104;-77
2023/04/18 09:37:06;;;;;;;11.75;7.18;;;;;;;8.67;77.88;102791.56;4988795;28;20061;-77
2023/04/18 09:39:32;;;;;;;12.13;7.43;;;;;;;8.71;77.41;102788.06;4991203;28;20045;-77
2023/04/18 09:41:58;;;;;;;9.20;6.97;;;;;;;8.78;76.65;102788.91;4992100;28;20031;-78
2023/04/18 09:44:23;;;;;;;10.60;7.38;;;;;;;8.90;77.27;102795.88;4992734;28;20030;-78
2023/04/18 09:46:48;;;;;;;9.35;6.75;;;;;;;9.02;76.31;102781.03;4993360;28;20293;-77
2023/04/18 09:49:15;;;;;;;8.13;7.07;;;;;;;9.08;75.63;102777.53;4989752;28;20234;-78
2023/04/18 09:51:42;;;;;;;9.98;7.07;;;;;;;9.12;75.50;102786.22;4987607;28;20038;-77
2023/04/18 09:54:13;;;;;;;8.13;7.32;;;;;;;9.16;75.76;102782.72;4990693;28;20049;-77
2023/04/18 09:56:42;;;;;;;8.73;7.68;;;;;;;9.22;75.21;102787.91;4991900;28;20038;-77
2023/04/18 09:59:09;;;;;;;8.77;7.57;;;;;;;9.26;75.01;102786.16;4988598;28;20038;-77
2023/04/18 10:01:35;;;;;;;7.25;6.60;;;;;;;9.27;75.43;102783.53;4993066;28;20046;-77
2023/04/18 10:04:03;;;;;;;7.55;6.75;;;;;;;9.30;74.87;102774.84;4992800;28;20064;-78
2023/04/18 10:06:32;;;;;;;7.40;6.75;;;;;;;9.30;74.92;102778.31;4990127;28;20072;-77
2023/04/18 10:08:57;;;;;;;10.27;6.88;;;;;;;9.33;74.76;102780.03;4995961;28;20038;-77
2023/04/18 10:11:24;;;;;;;9.85;7.45;;;;;;;9.34;74.60;102771.31;4989765;28;20354;-77
2023/04/18 10:13:54;;;;;;;13.23;6.88;;;;;;;9.34;74.66;102764.34;4988447;28;20047;-77
2023/04/18 10:16:20;;;;;;;10.02;6.60;;;;;;;9.34;74.49;102766.09;4997038;28;20065;-77
2023/04/18 10:18:45;;;;;;;7.82;7.13;;;;;;;9.35;74.07;102768.69;4995438;28;20108;-77
2023/04/18 10:21:11;;;;;;;12.10;7.55;;;;;;;9.33;75.05;102767.84;4997705;28;20119;-77
2023/04/18 10:23:38;;;;;;;8.73;7.82;;;;;;;9.34;75.37;102773.94;4994344;28;20109;-77
2023/04/18 10:26:05;;;;;;;7.88;6.93;;;;;;;9.35;75.17;102760.84;4996520;28;20369;-77
2023/04/18 10:28:53;;;;;;;7.45;6.72;;;;;;;9.35;75.87;102763.47;4993098;28;20324;-77
2023/04/18 10:31:21;;;;;;;8.00;7.30;;;;;;;9.37;75.98;102766.94;4990072;28;20057;-77
2023/04/18 10:33:48;;;;;;;7.60;6.90;;;;;;;9.39;75.06;102759.09;4992361;28;20038;-77
2023/04/18 10:36:15;;;;;;;7.65;6.90;;;;;;;9.40;74.63;102763.44;4994952;28;20349;-77
2023/04/18 10:39:21;;;;;;;8.55;7.32;;;;;;;9.47;75.80;102753.81;4990973;28;20026;-77
2023/04/18 10:41:50;;;;;;;8.05;6.35;;;;;;;9.52;75.12;102758.16;4965909;28;20117;-77
2023/04/18 10:44:23;;;;;;;6.97;6.28;;;;;;;9.55;74.90;102752.91;4989720;28;20033;-77
2023/04/18 10:46:52;;;;;;;8.00;6.07;;;;;;;9.60;74.52;102755.47;4993947;28;20113;-77
2023/04/18 10:49:25;;;;;;;6.13;5.22;;;;;;;9.66;73.48;102751.94;4996218;28;20038;-77
2023/04/18 10:51:57;;;;;;;5.38;4.57;;;;;;;9.76;72.76;102746.66;4999287;28;20065;-77
2023/04/18 10:55:00;;;;;;;5.28;4.75;;;;;;;9.86;72.11;102746.59;4999468;28;20041;-77
2023/04/18 10:57:40;;;;;;;5.18;4.50;;;;;;;9.94;71.36;102750.88;4997495;28;20050;-77
2023/04/18 11:00:13;;;;;;;5.55;4.40;;;;;;;9.98;71.32;102757.81;4994070;28;20060;-77
2023/04/18 11:02:40;;;;;;;5.65;5.15;;;;;;;9.98;70.78;102746.50;4994856;28;20046;-77
2023/04/18 11:05:07;;;;;;;4.78;4.28;;;;;;;9.98;70.96;102749.13;4999243;28;20230;-77
2023/04/18 11:07:47;;;;;;;5.25;4.75;;;;;;;9.97;70.46;102740.41;4995210;28;20061;-77
2023/04/18 11:10:17;;;;;;;4.82;4.43;;;;;;;9.99;70.56;102743.00;4999008;28;20049;-76
2023/04/18 11:12:43;;;;;;;4.25;3.92;;;;;;;10.00;70.30;102731.66;4997161;28;20049;-77
2023/04/18 11:15:11;;;;;;;5.57;5.03;;;;;;;10.02;69.78;102742.09;4997847;28;20046;-77
2023/04/18 11:17:38;;;;;;;4.95;4.45;;;;;;;9.99;69.76;102738.63;4997850;28;20041;-77
2023/04/18 11:20:08;;;;;;;4.68;4.22;;;;;;;9.96;69.96;102741.28;4996040;28;20088;-77
2023/04/18 11:23:02;;;;;;;4.60;3.92;;;;;;;9.94;69.35;102735.19;4996148;28;20041;-77
2023/04/18 11:25:35;;;;;;;4.07;3.78;;;;;;;9.95;69.47;102741.28;4990032;28;20058;-77